createdAt,value
2023-05-14T00:01:04.877Z,24.75
2023-05-14T00:03:31.539Z,21.77
2023-05-14T00:05:58.314Z,22.35
2023-05-14T00:08:25.045Z,24.00
2023-05-14T00:10:52.115Z,25.23
2023-05-14T00:13:18.727Z,20.23
2023-05-14T00:15:45.524Z,21.67
2023-05-14T00:18:12.435Z,24.48
2023-05-14T00:20:39.228Z,23.17
2023-05-14T00:23:05.998Z,21.48
2023-05-14T00:25:32.747Z,23.55
2023-05-14T00:28:00.706Z,20.80
2023-05-14T00:30:27.309Z,23.45
2023-05-14T00:32:54.055Z,22.17
2023-05-14T00:35:21.570Z,20.23
2023-05-14T00:37:48.411Z,21.92
2023-05-14T00:40:15.566Z,20.60
2023-05-14T00:42:42.198Z,21.48
2023-05-14T00:45:09.255Z,19.23
2023-05-14T00:47:36.461Z,19.30
2023-05-14T00:50:04.107Z,20.77
2023-05-14T00:52:32.149Z,23.95
2023-05-14T00:54:59.433Z,20.27
2023-05-14T00:57:26.343Z,19.70
2023-05-14T00:59:53.243Z,21.10
2023-05-14T01:02:19.916Z,19.50
2023-05-14T01:04:46.627Z,22.25
2023-05-14T01:07:40.962Z,19.08
2023-05-14T01:10:26.454Z,23.08
2023-05-14T01:13:04.091Z,22.13
2023-05-14T01:15:36.081Z,21.77
2023-05-14T01:18:10.408Z,21.77
2023-05-14T01:20:37.192Z,21.98
2023-05-14T01:23:03.863Z,18.80
2023-05-14T01:25:31.653Z,19.85
2023-05-14T01:28:17.980Z,22.45
2023-05-14T01:30:57.354Z,20.40
2023-05-14T01:33:27.507Z,22.30
2023-05-14T01:35:55.326Z,22.33
2023-05-14T01:38:22.830Z,22.02
2023-05-14T01:40:50.894Z,19.70
2023-05-14T01:43:17.677Z,19.08
2023-05-14T01:45:44.550Z,19.02
2023-05-14T01:48:11.342Z,19.80
2023-05-14T01:50:38.039Z,19.40
2023-05-14T01:53:04.772Z,20.90
2023-05-14T01:55:31.427Z,24.45
2023-05-14T01:57:58.231Z,18.88
2023-05-14T02:00:27.696Z,23.50
2023-05-14T02:02:54.348Z,22.70
2023-05-14T02:05:21.177Z,22.13
2023-05-14T02:07:47.843Z,18.05
2023-05-14T02:10:14.529Z,21.30
2023-05-14T02:12:41.263Z,20.20
2023-05-14T02:15:10.896Z,19.15
2023-05-14T02:17:37.656Z,20.83
2023-05-14T02:20:04.912Z,19.58
2023-05-14T02:22:31.630Z,21.20
2023-05-14T02:24:58.203Z,20.30
2023-05-14T02:27:25.205Z,23.23
2023-05-14T02:29:51.811Z,20.52
2023-05-14T02:32:18.433Z,22.85
2023-05-14T02:34:45.119Z,24.38
2023-05-14T02:37:11.667Z,21.17
2023-05-14T02:39:38.321Z,22.52
2023-05-14T02:42:05.200Z,19.02
2023-05-14T02:44:32.369Z,18.10
2023-05-14T02:46:59.123Z,19.05
2023-05-14T02:49:25.695Z,20.95
2023-05-14T02:51:54.260Z,24.67
2023-05-14T02:54:24.830Z,18.45
2023-05-14T02:59:18.160Z,19.92
2023-05-14T03:01:45.269Z,21.52
2023-05-14T03:04:12.558Z,23.50
2023-05-14T03:06:39.144Z,22.05
2023-05-14T03:09:05.774Z,21.80
2023-05-14T03:11:32.515Z,21.88
2023-05-14T03:13:59.119Z,19.35
2023-05-14T03:16:25.727Z,23.15
2023-05-14T03:18:52.445Z,20.17
2023-05-14T03:21:19.142Z,25.27
2023-05-14T03:23:45.821Z,22.67
2023-05-14T03:26:12.543Z,25.30
2023-05-14T03:28:40.016Z,19.38
2023-05-14T03:31:06.973Z,21.55
2023-05-14T03:33:33.827Z,21.13
2023-05-14T03:36:00.586Z,22.00
2023-05-14T03:38:27.163Z,23.95
2023-05-14T03:40:54.030Z,21.40
2023-05-14T03:43:20.607Z,22.13
2023-05-14T03:45:47.157Z,23.08
2023-05-14T03:48:13.823Z,21.67
2023-05-14T03:50:40.640Z,28.15
2023-05-14T03:53:07.216Z,22.92
2023-05-14T03:55:33.809Z,24.50
2023-05-14T03:58:00.624Z,24.15
2023-05-14T04:00:27.376Z,25.75
2023-05-14T04:02:54.417Z,24.17
2023-05-14T04:05:21.121Z,25.20
2023-05-14T04:07:47.722Z,22.27
2023-05-14T04:10:14.409Z,25.08
2023-05-14T04:12:41.052Z,28.95
2023-05-14T04:15:08.391Z,21.73
2023-05-14T04:17:35.233Z,22.27
2023-05-14T04:20:02.045Z,28.08
2023-05-14T04:22:28.665Z,23.38
2023-05-14T04:24:55.293Z,23.90
2023-05-14T04:27:22.290Z,23.27
2023-05-14T04:29:50.000Z,22.90
2023-05-14T04:32:17.653Z,23.05
2023-05-14T04:34:44.435Z,24.25
2023-05-14T04:37:11.047Z,22.92
2023-05-14T04:39:38.346Z,25.25
2023-05-14T04:42:06.605Z,26.50
2023-05-14T04:44:37.707Z,24.50
2023-05-14T04:47:04.925Z,24.05
2023-05-14T04:49:31.971Z,23.80
2023-05-14T04:51:58.507Z,29.08
2023-05-14T04:54:25.408Z,22.60
2023-05-14T04:56:52.017Z,24.02
2023-05-14T04:59:18.635Z,26.13
2023-05-14T05:01:45.995Z,25.83
2023-05-14T05:04:13.026Z,24.95
2023-05-14T05:06:39.891Z,28.17
2023-05-14T05:09:06.603Z,25.50
2023-05-14T05:11:33.282Z,28.73
2023-05-14T05:13:59.865Z,27.08
2023-05-14T05:16:26.561Z,26.55
2023-05-14T05:18:53.421Z,24.55
2023-05-14T05:21:20.109Z,24.45
2023-05-14T05:23:46.944Z,27.02
2023-05-14T05:26:13.537Z,24.83
2023-05-14T05:28:40.119Z,21.15
2023-05-14T05:31:07.163Z,24.80
2023-05-14T05:33:35.088Z,24.17
2023-05-14T05:36:01.750Z,23.33
2023-05-14T05:38:28.511Z,22.85
2023-05-14T05:40:55.434Z,25.88
2023-05-14T05:43:22.180Z,24.50
2023-05-14T05:45:48.784Z,23.50
2023-05-14T05:48:15.462Z,22.08
2023-05-14T05:50:44.313Z,23.05
2023-05-14T05:53:10.993Z,22.90
2023-05-14T05:55:37.743Z,23.63
2023-05-14T05:58:04.658Z,23.23
2023-05-14T06:00:31.502Z,22.15
2023-05-14T06:02:58.351Z,22.88
2023-05-14T06:05:25.280Z,21.00
2023-05-14T06:07:53.684Z,22.95
2023-05-14T06:10:20.689Z,22.30
2023-05-14T06:12:47.444Z,18.35
2023-05-14T06:15:14.525Z,25.48
2023-05-14T06:17:41.551Z,22.77
2023-05-14T06:20:09.071Z,20.60
2023-05-14T06:22:35.846Z,26.85
2023-05-14T06:25:02.433Z,19.80
2023-05-14T06:27:29.109Z,21.27
2023-05-14T06:29:55.951Z,20.88
2023-05-14T06:32:22.790Z,18.95
2023-05-14T06:34:49.439Z,16.73
2023-05-14T06:37:16.120Z,21.75
2023-05-14T06:39:50.073Z,23.13
2023-05-14T06:42:17.643Z,19.75
2023-05-14T06:44:44.892Z,20.50
2023-05-14T06:47:11.772Z,20.58
2023-05-14T06:49:38.940Z,18.80
2023-05-14T06:52:05.943Z,24.02
2023-05-14T06:54:32.552Z,22.73
2023-05-14T06:56:59.165Z,23.75
2023-05-14T06:59:26.376Z,23.23
2023-05-14T07:01:53.086Z,21.73
2023-05-14T07:04:19.900Z,20.95
2023-05-14T07:06:46.571Z,24.55
2023-05-14T07:09:13.372Z,22.77
2023-05-14T07:11:40.006Z,22.30
2023-05-14T07:14:06.630Z,19.13
2023-05-14T07:16:33.301Z,19.55
2023-05-14T07:18:59.940Z,19.42
2023-05-14T07:21:26.575Z,20.38
2023-05-14T07:23:53.147Z,18.27
2023-05-14T07:26:19.804Z,18.65
2023-05-14T07:28:46.356Z,20.13
2023-05-14T07:31:13.053Z,18.33
2023-05-14T07:33:39.820Z,23.45
2023-05-14T07:36:07.073Z,18.60
2023-05-14T07:38:33.960Z,18.70
2023-05-14T07:41:00.697Z,20.13
2023-05-14T07:43:27.374Z,20.02
2023-05-14T07:45:54.150Z,18.55
2023-05-14T07:48:21.005Z,19.60
2023-05-14T07:50:49.421Z,23.15
2023-05-14T07:53:16.102Z,21.42
2023-05-14T07:55:44.370Z,20.58
2023-05-14T07:58:10.976Z,18.98
2023-05-14T08:00:37.920Z,17.95
2023-05-14T08:03:05.250Z,18.50
2023-05-14T08:05:33.061Z,19.55
2023-05-14T08:07:59.715Z,20.50
2023-05-14T08:10:26.844Z,20.13
2023-05-14T08:12:53.837Z,21.65
2023-05-14T08:15:20.535Z,17.58
2023-05-14T08:17:47.299Z,18.20
2023-05-14T08:20:14.527Z,18.63
2023-05-14T08:22:41.376Z,18.85
2023-05-14T08:25:08.357Z,21.08
2023-05-14T08:27:35.157Z,18.40
2023-05-14T08:30:01.803Z,19.95
2023-05-14T08:32:28.447Z,19.05
2023-05-14T08:34:55.483Z,18.95
2023-05-14T08:37:22.092Z,18.67
2023-05-14T08:39:49.254Z,18.77
2023-05-14T08:42:20.602Z,22.05
2023-05-14T08:44:55.695Z,20.55
2023-05-14T08:47:23.963Z,18.08
2023-05-14T08:50:04.444Z,20.23
2023-05-14T08:55:00.404Z,23.13
2023-05-14T08:57:30.165Z,17.00
2023-05-14T08:59:57.224Z,19.10
2023-05-14T09:02:27.758Z,17.05
2023-05-14T09:07:22.882Z,18.70
2023-05-14T09:09:50.002Z,16.90
2023-05-14T09:12:16.873Z,19.13
2023-05-14T09:14:44.550Z,18.42
2023-05-14T09:17:12.671Z,18.98
2023-05-14T09:19:43.513Z,21.33
2023-05-14T09:22:13.505Z,19.65
2023-05-14T09:24:41.407Z,20.10
2023-05-14T09:27:09.788Z,20.17
2023-05-14T09:29:37.163Z,20.58
2023-05-14T09:32:05.677Z,19.05
2023-05-14T09:34:34.339Z,20.88
2023-05-14T09:37:05.767Z,17.60
2023-05-14T09:39:33.394Z,17.83
2023-05-14T09:42:00.171Z,21.08
2023-05-14T09:44:27.491Z,17.08
2023-05-14T09:46:54.550Z,20.40
2023-05-14T09:49:21.685Z,17.50
2023-05-14T09:51:51.479Z,19.17
2023-05-14T09:54:18.418Z,21.02
2023-05-14T09:56:45.357Z,17.27
2023-05-14T09:59:12.152Z,19.92
2023-05-14T10:01:39.514Z,19.08
2023-05-14T10:04:08.191Z,20.70
2023-05-14T10:06:39.323Z,17.63
2023-05-14T10:09:13.061Z,18.27
2023-05-14T10:11:43.809Z,20.15
2023-05-14T10:14:29.199Z,20.80
2023-05-14T10:16:59.477Z,17.75
2023-05-14T10:19:26.749Z,19.77
2023-05-14T10:21:57.237Z,18.15
2023-05-14T10:26:51.858Z,19.73
2023-05-14T10:29:18.688Z,19.25
2023-05-14T10:31:49.791Z,18.90
2023-05-14T10:34:40.862Z,16.45
2023-05-14T10:37:16.007Z,17.45
2023-05-14T10:39:44.132Z,20.42
2023-05-14T10:42:13.009Z,18.65
2023-05-14T10:44:47.192Z,18.88
2023-05-14T10:47:15.084Z,19.00
2023-05-14T10:49:44.040Z,20.77
2023-05-14T10:52:12.305Z,17.95
2023-05-14T10:54:39.128Z,17.10
2023-05-14T10:57:11.360Z,19.10
2023-05-14T10:59:41.918Z,19.23
2023-05-14T11:02:20.151Z,22.23
2023-05-14T11:05:05.852Z,19.58
2023-05-14T11:07:40.385Z,20.00
2023-05-14T11:10:12.678Z,19.83
2023-05-14T11:12:42.233Z,17.85
2023-05-14T11:15:14.721Z,17.47
2023-05-14T11:17:43.681Z,18.88
2023-05-14T11:20:11.410Z,16.13
2023-05-14T11:22:39.249Z,19.10
2023-05-14T11:25:06.754Z,17.23
2023-05-14T11:27:39.933Z,17.42
2023-05-14T11:30:17.608Z,16.95
2023-05-14T11:32:46.255Z,16.67
2023-05-14T11:35:13.923Z,13.75
2023-05-14T11:37:40.908Z,16.60
2023-05-14T11:40:12.538Z,16.88
2023-05-14T11:42:39.339Z,13.82
2023-05-14T11:45:06.976Z,14.20
2023-05-14T11:47:33.767Z,20.00
2023-05-14T11:50:01.167Z,14.80
2023-05-14T11:52:27.952Z,13.63
2023-05-14T11:54:54.763Z,15.82
2023-05-14T11:57:22.822Z,16.17
2023-05-14T11:59:55.636Z,12.43
2023-05-14T12:02:23.076Z,13.88
2023-05-14T12:04:54.416Z,15.40
2023-05-14T12:07:21.102Z,12.70
2023-05-14T12:09:49.873Z,11.88
2023-05-14T12:12:20.155Z,13.00
2023-05-14T12:14:47.235Z,12.93
2023-05-14T12:17:18.786Z,15.05
2023-05-14T12:19:48.481Z,14.77
2023-05-14T12:22:17.576Z,11.45
2023-05-14T12:24:53.483Z,17.25
2023-05-14T12:27:24.615Z,13.68
2023-05-14T12:30:19.130Z,13.55
2023-05-14T12:32:49.023Z,15.52
2023-05-14T12:35:15.811Z,14.18
2023-05-14T12:37:43.218Z,13.00
2023-05-14T12:40:10.364Z,12.23
2023-05-14T12:42:37.460Z,12.95
2023-05-14T12:45:07.246Z,12.77
2023-05-14T12:47:34.527Z,13.32
2023-05-14T12:50:01.529Z,14.38
2023-05-14T12:52:37.529Z,15.23
2023-05-14T12:55:07.287Z,14.10
2023-05-14T12:57:35.668Z,13.57
2023-05-14T13:00:06.898Z,14.90
2023-05-14T13:02:42.578Z,10.23
2023-05-14T13:05:11.194Z,11.50
2023-05-14T13:07:38.228Z,15.57
2023-05-14T13:10:08.505Z,13.63
2023-05-14T13:12:35.208Z,13.20
2023-05-14T13:15:02.109Z,12.45
2023-05-14T13:17:28.788Z,14.48
2023-05-14T13:19:55.582Z,11.93
2023-05-14T13:22:22.307Z,13.20
2023-05-14T13:24:48.843Z,12.23
2023-05-14T13:27:15.521Z,17.05
2023-05-14T13:29:42.316Z,13.80
2023-05-14T13:32:09.019Z,13.07
2023-05-14T13:34:36.307Z,12.80
2023-05-14T13:37:03.234Z,13.52
2023-05-14T13:39:29.812Z,11.52
2023-05-14T13:41:57.016Z,11.43
2023-05-14T13:44:24.319Z,11.38
2023-05-14T13:46:51.122Z,15.40
2023-05-14T13:49:17.910Z,11.52
2023-05-14T13:51:44.767Z,15.93
2023-05-14T13:54:11.718Z,14.20
2023-05-14T13:56:38.474Z,13.02
2023-05-14T13:59:05.958Z,13.18
2023-05-14T14:01:32.734Z,14.55
2023-05-14T14:03:59.527Z,13.10
2023-05-14T14:06:27.463Z,12.52
2023-05-14T14:08:54.230Z,12.20
2023-05-14T14:11:21.112Z,11.40
2023-05-14T14:13:47.796Z,13.35
2023-05-14T14:16:14.442Z,12.98
2023-05-14T14:18:43.102Z,13.48
2023-05-14T14:21:10.474Z,13.05
2023-05-14T14:23:37.195Z,16.58
2023-05-14T14:26:04.013Z,12.27
2023-05-14T14:28:31.365Z,12.35
2023-05-14T14:30:58.091Z,16.25
2023-05-14T14:33:24.927Z,13.95
2023-05-14T14:35:51.846Z,13.57
2023-05-14T14:38:18.527Z,12.60
2023-05-14T14:40:46.285Z,15.13
2023-05-14T14:43:13.062Z,14.57
2023-05-14T14:45:39.830Z,12.98
2023-05-14T14:48:26.571Z,13.00
2023-05-14T14:50:53.930Z,13.55
2023-05-14T14:53:21.639Z,15.02
2023-05-14T14:55:49.290Z,12.52
2023-05-14T14:58:16.128Z,12.48
2023-05-14T15:00:43.745Z,13.57
2023-05-14T15:03:10.581Z,13.40
2023-05-14T15:05:37.688Z,12.82
2023-05-14T15:08:04.909Z,10.60
2023-05-14T15:10:32.107Z,12.35
2023-05-14T15:12:59.522Z,13.57
2023-05-14T15:15:26.476Z,15.75
2023-05-14T15:17:53.258Z,16.30
2023-05-14T15:20:19.994Z,15.55
2023-05-14T15:22:46.732Z,15.88
2023-05-14T15:58:03.090Z,17.40
2023-05-14T16:00:29.934Z,15.20
2023-05-14T16:02:56.738Z,15.45
2023-05-14T16:05:23.595Z,14.85
2023-05-14T16:07:50.261Z,17.02
2023-05-14T16:10:16.917Z,15.48
2023-05-14T16:12:43.669Z,14.77
2023-05-14T16:15:10.757Z,15.60
2023-05-14T16:17:37.711Z,19.38
2023-05-14T16:20:05.348Z,18.80
2023-05-14T16:22:36.086Z,20.48
2023-05-14T16:25:04.434Z,20.98
2023-05-14T16:27:31.705Z,21.45
2023-05-14T16:29:58.447Z,23.42
2023-05-14T16:32:25.503Z,20.33
2023-05-14T16:34:52.314Z,19.95
2023-05-14T16:37:22.494Z,20.25
2023-05-14T16:39:49.126Z,20.38
2023-05-14T16:42:15.824Z,22.70
2023-05-14T16:44:42.387Z,25.23
2023-05-14T16:47:08.969Z,21.98
2023-05-14T16:49:35.691Z,21.63
2023-05-14T16:52:02.254Z,22.08
2023-05-14T16:54:28.914Z,25.77
2023-05-14T16:56:55.896Z,22.85
2023-05-14T16:59:22.484Z,24.35
2023-05-14T17:01:49.183Z,24.83
2023-05-14T17:04:15.981Z,24.98
2023-05-14T17:06:42.551Z,26.77
2023-05-14T17:09:09.242Z,24.88
2023-05-14T17:11:36.039Z,23.98
2023-05-14T17:14:02.681Z,25.45
2023-05-14T17:16:29.548Z,26.10
2023-05-14T17:18:56.445Z,25.48
2023-05-14T17:21:23.270Z,24.83
2023-05-14T17:23:49.885Z,26.50
2023-05-14T17:26:18.560Z,23.77
2023-05-14T17:28:45.420Z,25.38
2023-05-14T17:31:12.260Z,25.88
2023-05-14T17:33:39.034Z,25.75
2023-05-14T17:36:06.518Z,27.08
2023-05-14T17:38:33.121Z,24.63
2023-05-14T17:40:59.832Z,24.95
2023-05-14T17:43:26.406Z,24.40
2023-05-14T17:45:54.800Z,26.73
2023-05-14T17:48:22.838Z,25.25
2023-05-14T17:50:50.111Z,27.70
2023-05-14T17:53:16.866Z,27.23
2023-05-14T17:55:43.913Z,27.35
2023-05-14T17:58:13.423Z,31.85
2023-05-14T18:00:40.798Z,28.92
2023-05-14T18:03:10.892Z,28.83
2023-05-14T18:05:37.747Z,32.05
2023-05-14T18:08:04.581Z,30.38
2023-05-14T18:10:31.429Z,27.88
2023-05-14T18:12:58.254Z,29.52
2023-05-14T18:15:25.844Z,29.95
2023-05-14T18:17:53.162Z,28.25
2023-05-14T18:20:20.942Z,29.17
2023-05-14T18:22:47.803Z,29.88
2023-05-14T18:25:14.610Z,27.67
2023-05-14T18:27:45.132Z,29.58
2023-05-14T18:30:14.603Z,29.80
2023-05-14T18:32:43.696Z,29.92
2023-05-14T18:35:11.276Z,30.48
2023-05-14T18:37:37.942Z,30.20
2023-05-14T18:40:06.915Z,29.02
2023-05-14T18:42:34.759Z,31.80
2023-05-14T18:45:01.643Z,30.65
2023-05-14T18:47:28.587Z,32.80
2023-05-14T18:49:57.736Z,29.63
2023-05-14T18:52:24.808Z,31.15
2023-05-14T18:54:51.509Z,30.48
2023-05-14T18:57:18.163Z,29.65
2023-05-14T18:59:44.767Z,30.40
2023-05-14T19:02:11.494Z,31.58
2023-05-14T19:04:50.746Z,29.63
2023-05-14T19:09:45.570Z,31.85
2023-05-14T19:12:12.559Z,33.33
2023-05-14T19:14:39.254Z,33.60
2023-05-14T19:17:05.974Z,32.65
2023-05-14T19:19:32.792Z,33.20
2023-05-14T19:21:59.561Z,35.05
2023-05-14T19:24:26.127Z,34.13
2023-05-14T19:26:53.058Z,34.40
2023-05-14T19:29:19.667Z,34.40
2023-05-14T19:31:47.197Z,33.22
2023-05-14T19:34:13.979Z,31.83
2023-05-14T19:36:41.702Z,32.38
2023-05-14T19:39:08.360Z,35.20
2023-05-14T19:41:35.011Z,34.80
2023-05-14T19:44:01.612Z,35.85
2023-05-14T19:46:28.317Z,37.70
2023-05-14T19:48:54.869Z,36.90
2023-05-14T19:51:21.502Z,35.35
2023-05-14T19:53:48.160Z,38.67
2023-05-14T19:56:15.625Z,35.17
2023-05-14T19:58:42.642Z,38.03
2023-05-14T20:01:09.356Z,38.80
2023-05-14T20:03:36.181Z,38.38
2023-05-14T20:06:02.853Z,36.25
2023-05-14T20:08:29.485Z,34.22
2023-05-14T20:10:56.369Z,37.42
2023-05-14T20:13:25.059Z,35.47
2023-05-14T20:15:52.097Z,35.40
2023-05-14T20:18:18.730Z,34.95
2023-05-14T20:20:45.417Z,37.58
2023-05-14T20:23:12.152Z,35.92
2023-05-14T20:25:38.855Z,36.72
2023-05-14T20:28:05.590Z,38.70
2023-05-14T20:30:32.494Z,35.90
2023-05-14T20:32:59.713Z,38.88
2023-05-14T20:35:26.806Z,41.33
2023-05-14T20:37:53.545Z,41.00
2023-05-14T20:40:21.386Z,42.47
2023-05-14T20:42:50.364Z,42.17
2023-05-14T20:45:17.221Z,39.90
2023-05-14T20:47:44.286Z,44.42
2023-05-14T20:50:11.701Z,47.03
2023-05-14T20:52:38.373Z,45.88
2023-05-14T20:55:05.608Z,44.85
2023-05-14T20:57:32.283Z,46.55
2023-05-14T20:59:58.908Z,43.38
2023-05-14T21:02:25.711Z,43.30
2023-05-14T21:04:52.741Z,45.40
2023-05-14T21:07:19.463Z,45.95
2023-05-14T21:09:50.804Z,49.30
2023-05-14T21:12:17.416Z,45.45
2023-05-14T21:14:43.979Z,46.47
2023-05-14T21:17:10.949Z,44.05
2023-05-14T21:19:37.538Z,44.88
2023-05-14T21:22:04.274Z,44.58
2023-05-14T21:24:31.082Z,46.70
2023-05-14T21:26:57.834Z,43.33
2023-05-14T21:29:24.507Z,44.15
2023-05-14T21:31:51.150Z,41.38
2023-05-14T21:34:17.764Z,42.78
2023-05-14T22:13:13.242Z,42.38
2023-05-14T22:15:39.857Z,42.42
2023-05-14T22:18:06.967Z,42.25
2023-05-14T22:20:33.787Z,43.17
2023-05-14T22:23:00.571Z,43.60
2023-05-14T22:25:27.799Z,44.90
2023-05-14T22:27:54.551Z,46.17
2023-05-14T22:30:21.363Z,42.47
2023-05-14T22:32:48.076Z,47.47
2023-05-14T22:35:14.979Z,48.45
2023-05-14T22:37:41.807Z,52.83
2023-05-14T22:40:09.152Z,45.95
2023-05-14T22:42:36.149Z,46.20
2023-05-14T22:45:03.051Z,45.97
2023-05-14T22:47:29.720Z,47.03
2023-05-14T22:49:56.586Z,46.28
2023-05-14T22:52:23.176Z,47.13
2023-05-14T22:54:51.058Z,46.90
2023-05-14T22:57:18.021Z,45.35
2023-05-14T22:59:44.639Z,45.50
2023-05-14T23:02:11.355Z,45.75
2023-05-14T23:04:38.155Z,42.45
2023-05-14T23:07:05.074Z,48.75
2023-05-14T23:09:31.605Z,45.70
2023-05-14T23:11:58.269Z,50.67
2023-05-14T23:14:24.871Z,42.08
2023-05-14T23:16:51.480Z,43.85
2023-05-14T23:19:18.421Z,43.03
2023-05-14T23:21:45.010Z,45.28
2023-05-14T23:24:11.613Z,44.05
2023-05-14T23:26:38.601Z,46.85
2023-05-14T23:29:05.181Z,45.25
2023-05-14T23:31:32.249Z,44.15
2023-05-14T23:33:59.018Z,44.28
2023-05-14T23:36:25.627Z,45.08
2023-05-14T23:38:52.495Z,47.38
2023-05-14T23:41:19.305Z,43.60
2023-05-14T23:43:45.916Z,44.97
2023-05-14T23:46:13.069Z,45.53
2023-05-14T23:48:39.750Z,43.55
2023-05-14T23:51:06.364Z,45.47
2023-05-14T23:53:32.926Z,44.17
2023-05-14T23:55:59.689Z,44.38
2023-05-14T23:58:26.393Z,43.95
